createdAt,value
2019-04-13T00:00:05.852Z,2.17
2019-04-13T00:02:40.363Z,2.80
2019-04-13T00:05:17.694Z,2.90
2019-04-13T00:07:45.915Z,2.60
2019-04-13T00:10:14.543Z,2.08
2019-04-13T00:12:41.666Z,2.05
2019-04-13T00:15:14.138Z,2.45
2019-04-13T00:17:41.594Z,2.75
2019-04-13T00:20:08.798Z,3.10
2019-04-13T00:22:36.830Z,3.10
2019-04-13T00:25:03.970Z,3.20
2019-04-13T00:27:31.318Z,4.08
2019-04-13T00:29:58.105Z,3.50
2019-04-13T00:32:25.419Z,4.33
2019-04-13T00:34:52.883Z,4.00
2019-04-13T00:37:20.603Z,3.33
2019-04-13T00:39:48.319Z,3.00
2019-04-13T00:42:15.129Z,3.62
2019-04-13T00:44:41.747Z,3.30
2019-04-13T00:47:08.357Z,3.83
2019-04-13T00:49:34.995Z,4.55
2019-04-13T00:52:03.909Z,3.27
2019-04-13T00:54:30.592Z,3.70
2019-04-13T00:56:57.210Z,3.40
2019-04-13T00:59:23.819Z,3.40
2019-04-13T01:01:50.563Z,3.47
2019-04-13T01:04:17.282Z,3.20
2019-04-13T01:06:44.591Z,3.25
2019-04-13T01:09:12.247Z,3.50
2019-04-13T01:11:38.847Z,3.17
2019-04-13T01:14:05.942Z,3.65
2019-04-13T01:16:32.990Z,3.25
2019-04-13T01:19:00.339Z,3.77
2019-04-13T01:21:27.384Z,4.35
2019-04-13T01:23:55.050Z,3.83
2019-04-13T01:26:22.298Z,4.62
2019-04-13T01:28:49.249Z,4.08
2019-04-13T01:31:17.525Z,4.35
2019-04-13T01:33:44.774Z,4.67
2019-04-13T01:36:13.151Z,4.33
2019-04-13T01:38:40.128Z,4.15
2019-04-13T01:41:07.556Z,4.40
2019-04-13T01:43:34.346Z,5.30
2019-04-13T01:46:00.977Z,5.40
2019-04-13T01:48:27.879Z,4.78
2019-04-13T01:50:54.819Z,5.00
2019-04-13T01:53:21.771Z,4.55
2019-04-13T01:55:48.391Z,5.12
2019-04-13T01:58:15.758Z,5.55
2019-04-13T02:01:01.134Z,5.10
2019-04-13T02:03:29.867Z,5.28
2019-04-13T02:06:01.748Z,6.08
2019-04-13T02:08:48.899Z,4.95
2019-04-13T02:11:18.919Z,4.53
2019-04-13T02:13:45.865Z,5.15
2019-04-13T02:16:13.119Z,5.10
2019-04-13T02:18:40.062Z,5.70
2019-04-13T02:21:07.416Z,5.30
2019-04-13T02:23:34.024Z,6.30
2019-04-13T02:26:01.006Z,4.85
2019-04-13T02:28:27.593Z,5.83
2019-04-13T02:30:54.253Z,4.53
2019-04-13T02:33:21.890Z,5.65
2019-04-13T02:35:49.092Z,5.05
2019-04-13T02:38:16.027Z,4.33
2019-04-13T02:40:42.655Z,4.60
2019-04-13T02:43:09.394Z,5.12
2019-04-13T02:45:38.500Z,4.60
2019-04-13T02:48:05.443Z,4.12
2019-04-13T02:50:32.700Z,4.55
2019-04-13T02:52:59.643Z,4.62
2019-04-13T02:55:26.592Z,4.40
2019-04-13T02:57:53.530Z,4.45
2019-04-13T03:00:20.172Z,4.97
2019-04-13T03:02:47.319Z,4.90
2019-04-13T03:05:14.263Z,5.00
2019-04-13T03:07:41.203Z,4.83
2019-04-13T03:10:08.763Z,4.60
2019-04-13T03:12:35.815Z,4.70
2019-04-13T03:15:02.873Z,5.40
2019-04-13T03:17:39.275Z,4.80
2019-04-13T03:20:10.031Z,5.15
2019-04-13T03:22:38.339Z,5.40
2019-04-13T03:25:05.691Z,5.80
2019-04-13T03:27:33.050Z,4.62
2019-04-13T03:29:59.992Z,5.10
2019-04-13T03:32:26.960Z,5.03
2019-04-13T03:34:55.219Z,5.45
2019-04-13T03:37:22.876Z,4.83
2019-04-13T03:39:49.820Z,4.97
2019-04-13T03:42:16.779Z,4.97
2019-04-13T03:44:43.811Z,4.50
2019-04-13T03:47:11.104Z,4.70
2019-04-13T03:49:38.206Z,4.85
2019-04-13T03:52:04.875Z,4.55
2019-04-13T03:54:31.623Z,5.12
2019-04-13T03:56:58.239Z,5.55
2019-04-13T03:59:24.911Z,4.15
2019-04-13T04:01:51.951Z,4.22
2019-04-13T04:04:18.579Z,4.35
2019-04-13T04:06:45.215Z,4.67
2019-04-13T04:09:11.980Z,4.83
2019-04-13T04:11:40.392Z,4.60
2019-04-13T04:14:07.357Z,3.83
2019-04-13T04:16:34.911Z,4.22
2019-04-13T04:19:01.854Z,3.75
2019-04-13T04:21:29.111Z,5.00
2019-04-13T04:23:56.466Z,6.22
2019-04-13T04:26:23.610Z,3.60
2019-04-13T04:28:50.560Z,4.50
2019-04-13T04:31:17.443Z,4.97
2019-04-13T04:33:46.187Z,4.00
2019-04-13T04:36:23.116Z,3.35
2019-04-13T04:38:44.071Z,2.55
2019-04-13T04:41:11.046Z,3.70
2019-04-13T04:43:38.266Z,3.65
2019-04-13T04:46:04.910Z,3.72
2019-04-13T04:48:31.529Z,4.00
2019-04-13T04:51:10.248Z,3.35
2019-04-13T04:53:27.378Z,3.70
2019-04-13T04:55:56.367Z,3.87
2019-04-13T04:58:23.347Z,3.22
2019-04-13T05:00:50.467Z,3.40
2019-04-13T05:03:17.406Z,4.10
2019-04-13T05:05:45.071Z,3.90
2019-04-13T05:08:14.617Z,3.55
2019-04-13T05:10:40.807Z,4.12
2019-04-13T05:13:07.776Z,4.87
2019-04-13T05:15:34.833Z,3.50
2019-04-13T05:18:02.155Z,3.83
2019-04-13T05:20:29.587Z,4.22
2019-04-13T05:22:57.062Z,3.80
2019-04-13T05:25:24.006Z,3.62
2019-04-13T05:27:51.458Z,4.00
2019-04-13T05:30:18.410Z,3.67
2019-04-13T05:32:45.664Z,3.58
2019-04-13T05:35:12.622Z,3.85
2019-04-13T05:37:39.858Z,4.00
2019-04-13T05:40:07.515Z,4.03
2019-04-13T05:42:35.231Z,3.40
2019-04-13T05:45:03.663Z,3.85
2019-04-13T05:47:30.920Z,3.87
2019-04-13T05:49:59.911Z,4.25
2019-04-13T05:52:26.854Z,3.00
2019-04-13T05:54:53.799Z,3.33
2019-04-13T05:57:20.743Z,3.17
2019-04-13T05:59:49.941Z,3.80
2019-04-13T06:02:17.183Z,3.45
2019-04-13T06:04:43.962Z,3.60
2019-04-13T06:07:10.599Z,3.20
2019-04-13T06:09:37.918Z,4.25
2019-04-13T06:12:05.005Z,2.87
2019-04-13T06:14:32.723Z,3.55
2019-04-13T06:16:59.726Z,3.10
2019-04-13T06:19:26.335Z,3.15
2019-04-13T06:21:52.971Z,3.30
2019-04-13T06:24:21.402Z,3.42
2019-04-13T06:26:48.131Z,3.72
2019-04-13T06:29:15.139Z,3.25
2019-04-13T06:31:53.228Z,3.10
2019-04-13T06:34:40.042Z,3.45
2019-04-13T06:37:12.321Z,3.20
2019-04-13T06:39:35.805Z,3.40
2019-04-13T06:42:04.659Z,4.25
2019-04-13T06:44:35.999Z,4.28
2019-04-13T06:47:00.907Z,3.72
2019-04-13T06:49:27.852Z,3.58
2019-04-13T06:51:55.103Z,3.77
2019-04-13T06:54:23.515Z,4.15
2019-04-13T06:56:50.678Z,3.02
2019-04-13T06:59:17.586Z,3.75
2019-04-13T07:01:44.247Z,3.08
2019-04-13T07:04:10.895Z,3.90
2019-04-13T07:06:47.610Z,3.52
2019-04-13T07:09:26.207Z,3.72
2019-04-13T07:12:14.382Z,3.60
2019-04-13T07:14:41.746Z,3.80
2019-04-13T07:17:37.762Z,3.25
2019-04-13T07:20:04.713Z,3.87
2019-04-13T07:22:31.973Z,3.50
2019-04-13T07:24:59.065Z,3.95
2019-04-13T07:27:27.582Z,4.75
2019-04-13T07:29:54.536Z,3.83
2019-04-13T07:32:22.279Z,3.30
2019-04-13T07:34:49.653Z,3.70
2019-04-13T07:37:16.247Z,4.30
2019-04-13T07:39:48.070Z,3.50
2019-04-13T07:42:14.191Z,4.47
2019-04-13T07:44:46.823Z,4.12
2019-04-13T07:47:42.539Z,3.73
2019-04-13T07:50:27.544Z,3.42
2019-04-13T07:52:55.563Z,3.35
2019-04-13T07:55:22.867Z,4.35
2019-04-13T07:57:49.911Z,4.37
2019-04-13T08:00:17.471Z,4.40
2019-04-13T08:02:45.035Z,3.72
2019-04-13T08:05:12.186Z,3.50
2019-04-13T08:07:49.189Z,3.83
2019-04-13T08:10:09.039Z,3.97
2019-04-13T08:12:36.495Z,3.73
2019-04-13T08:15:04.566Z,4.40
2019-04-13T08:17:33.510Z,3.67
2019-04-13T08:20:29.701Z,3.43
2019-04-13T08:22:58.475Z,3.70
2019-04-13T08:25:25.722Z,3.73
2019-04-13T08:27:52.671Z,3.73
2019-04-13T08:30:19.615Z,4.70
2019-04-13T08:32:47.582Z,4.53
2019-04-13T08:35:15.198Z,4.93
2019-04-13T08:37:52.819Z,5.13
2019-04-13T08:40:12.092Z,4.50
2019-04-13T08:42:40.075Z,3.52
2019-04-13T08:45:07.036Z,4.28
2019-04-13T08:47:33.730Z,4.05
2019-04-13T08:50:00.706Z,4.28
2019-04-13T08:52:31.026Z,4.10
2019-04-13T08:54:58.385Z,4.20
2019-04-13T08:57:25.328Z,4.60
2019-04-13T08:59:52.274Z,4.70
2019-04-13T09:02:19.221Z,4.65
2019-04-13T09:04:46.575Z,4.90
2019-04-13T09:07:15.212Z,5.07
2019-04-13T09:09:44.773Z,4.97
2019-04-13T09:12:11.912Z,4.60
2019-04-13T09:14:40.699Z,4.75
2019-04-13T09:17:08.467Z,5.42
2019-04-13T09:19:46.560Z,4.33
2019-04-13T09:22:22.337Z,3.90
2019-04-13T09:24:52.665Z,4.87
2019-04-13T09:27:18.447Z,6.00
2019-04-13T09:29:47.062Z,5.47
2019-04-13T09:32:13.620Z,5.00
2019-04-13T09:34:40.250Z,5.22
2019-04-13T09:37:07.263Z,5.80
2019-04-13T09:39:33.892Z,5.80
2019-04-13T09:42:00.886Z,6.40
2019-04-13T09:44:31.173Z,6.92
2019-04-13T09:46:59.860Z,5.30
2019-04-13T09:49:26.487Z,5.85
2019-04-13T09:51:53.130Z,5.70
2019-04-13T09:54:20.078Z,5.75
2019-04-13T09:56:47.028Z,5.92
2019-04-13T09:59:14.687Z,5.70
2019-04-13T10:01:45.172Z,6.40
2019-04-13T10:04:12.909Z,7.25
2019-04-13T10:06:42.518Z,6.67
2019-04-13T10:09:09.634Z,7.40
2019-04-13T10:11:41.460Z,6.37
2019-04-13T10:14:28.695Z,6.80
2019-04-13T10:17:17.887Z,6.47
2019-04-13T10:19:44.510Z,6.62
2019-04-13T10:22:11.171Z,7.00
2019-04-13T10:24:38.221Z,7.42
2019-04-13T10:27:05.763Z,7.17
2019-04-13T10:29:32.831Z,7.83
2019-04-13T10:31:59.776Z,7.70
2019-04-13T10:34:27.831Z,8.00
2019-04-13T10:36:54.767Z,9.00
2019-04-13T10:39:22.840Z,7.55
2019-04-13T10:41:50.195Z,7.45
2019-04-13T10:44:17.449Z,7.30
2019-04-13T10:47:04.051Z,7.72
2019-04-13T10:49:36.630Z,6.40
2019-04-13T10:52:07.667Z,8.15
2019-04-13T10:54:34.615Z,7.90
2019-04-13T10:57:01.867Z,6.90
2019-04-13T10:59:29.118Z,7.83
2019-04-13T11:01:56.214Z,7.45
2019-04-13T11:04:23.418Z,8.03
2019-04-13T11:06:52.641Z,6.53
2019-04-13T11:09:21.665Z,7.70
2019-04-13T11:11:47.104Z,7.50
2019-04-13T11:14:14.850Z,7.42
2019-04-13T11:16:41.447Z,8.15
2019-04-13T11:19:08.425Z,7.95
2019-04-13T11:21:35.167Z,7.83
2019-04-13T11:24:01.871Z,7.28
2019-04-13T11:26:29.187Z,7.37
2019-04-13T11:28:56.554Z,6.22
2019-04-13T11:31:23.806Z,6.45
2019-04-13T11:33:50.770Z,5.65
2019-04-13T11:36:18.059Z,6.17
2019-04-13T11:38:46.400Z,6.05
2019-04-13T11:41:26.222Z,6.80
2019-04-13T11:44:18.975Z,6.20
2019-04-13T11:46:53.287Z,5.87
2019-04-13T11:49:22.091Z,5.90
2019-04-13T11:51:49.462Z,5.60
2019-04-13T11:54:16.387Z,6.42
2019-04-13T11:56:43.003Z,6.75
2019-04-13T11:59:09.640Z,6.10
2019-04-13T12:01:59.643Z,6.62
2019-04-13T12:04:39.151Z,6.70
2019-04-13T12:07:27.020Z,7.70
2019-04-13T12:10:11.367Z,7.20
2019-04-13T12:12:47.125Z,7.85
2019-04-13T12:15:33.271Z,7.03
2019-04-13T12:18:14.743Z,7.62
2019-04-13T12:20:49.800Z,7.92
2019-04-13T12:23:16.983Z,6.65
2019-04-13T12:25:44.339Z,7.25
2019-04-13T12:28:10.979Z,7.58
2019-04-13T12:30:42.766Z,6.65
2019-04-13T12:33:09.701Z,6.50
2019-04-13T12:35:37.834Z,6.45
2019-04-13T12:38:09.532Z,6.90
2019-04-13T12:40:43.356Z,6.03
2019-04-13T12:43:07.586Z,6.60
2019-04-13T12:45:38.694Z,7.50
2019-04-13T12:48:05.997Z,5.37
2019-04-13T12:50:32.597Z,6.30
2019-04-13T12:53:02.575Z,6.50
2019-04-13T12:55:29.489Z,6.27
2019-04-13T12:57:56.844Z,6.60
2019-04-13T13:00:42.959Z,5.77
2019-04-13T13:03:13.935Z,5.77
2019-04-13T13:05:43.239Z,5.97
2019-04-13T13:08:10.275Z,6.07
2019-04-13T13:10:37.291Z,5.93
2019-04-13T13:13:04.242Z,5.87
2019-04-13T13:15:30.995Z,7.17
2019-04-13T13:17:57.943Z,6.70
2019-04-13T13:20:24.946Z,6.40
2019-04-13T13:22:51.696Z,6.03
2019-04-13T13:25:18.434Z,5.63
2019-04-13T13:27:45.150Z,5.33
2019-04-13T13:30:13.411Z,5.42
2019-04-13T13:32:40.040Z,5.63
2019-04-13T13:35:07.155Z,5.83
2019-04-13T13:37:34.405Z,5.63
2019-04-13T13:40:03.180Z,5.90
2019-04-13T13:42:29.795Z,7.10
2019-04-13T13:44:56.440Z,6.60
2019-04-13T13:47:24.147Z,5.10
2019-04-13T13:49:51.619Z,5.97
2019-04-13T13:52:19.632Z,5.43
2019-04-13T13:54:46.285Z,5.15
2019-04-13T13:57:13.306Z,5.10
2019-04-13T13:59:39.946Z,6.10
2019-04-13T14:02:15.703Z,4.73
2019-04-13T14:04:41.963Z,5.30
2019-04-13T14:07:08.586Z,7.20
2019-04-13T14:09:36.988Z,5.30
2019-04-13T14:12:04.503Z,5.33
2019-04-13T14:14:31.490Z,5.53
2019-04-13T14:16:58.086Z,5.80
2019-04-13T14:19:27.610Z,5.37
2019-04-13T14:21:54.775Z,6.27
2019-04-13T14:24:21.410Z,5.40
2019-04-13T14:26:48.036Z,5.67
2019-04-13T14:29:14.719Z,6.87
2019-04-13T14:31:41.351Z,6.92
2019-04-13T14:34:08.096Z,5.47
2019-04-13T14:36:35.577Z,5.70
2019-04-13T14:39:04.751Z,6.15
2019-04-13T14:41:31.723Z,4.95
2019-04-13T14:43:59.694Z,4.53
2019-04-13T14:46:28.366Z,5.53
2019-04-13T14:48:55.340Z,5.45
2019-04-13T14:51:23.092Z,6.25
2019-04-13T14:53:49.777Z,5.37
2019-04-13T14:56:18.416Z,5.92
2019-04-13T14:58:46.707Z,6.08
2019-04-13T15:01:13.747Z,5.55
2019-04-13T15:03:40.800Z,4.75
2019-04-13T15:06:07.887Z,5.05
2019-04-13T15:08:34.523Z,4.50
2019-04-13T15:11:16.646Z,4.75
2019-04-13T15:13:31.645Z,4.80
2019-04-13T15:16:02.036Z,5.25
2019-04-13T15:18:44.489Z,5.30
2019-04-13T15:21:11.124Z,5.40
2019-04-13T15:23:42.505Z,4.33
2019-04-13T15:26:10.204Z,4.72
2019-04-13T15:28:38.358Z,4.47
2019-04-13T15:31:07.705Z,4.92
2019-04-13T15:33:35.046Z,5.50
2019-04-13T15:36:04.717Z,4.85
2019-04-13T15:38:32.840Z,4.58
2019-04-13T15:41:03.131Z,5.10
2019-04-13T15:43:33.377Z,4.78
2019-04-13T15:45:58.802Z,5.22
2019-04-13T15:48:28.253Z,5.75
2019-04-13T15:50:55.325Z,5.35
2019-04-13T15:53:28.780Z,5.17
2019-04-13T15:55:56.802Z,5.60
2019-04-13T15:58:25.052Z,5.70
2019-04-13T16:00:52.608Z,4.87
2019-04-13T16:03:19.577Z,5.80
2019-04-13T16:05:47.433Z,6.12
2019-04-13T16:08:14.195Z,5.90
2019-04-13T16:11:07.437Z,5.60
2019-04-13T16:13:35.251Z,5.37
2019-04-13T16:16:02.800Z,6.45
2019-04-13T16:18:30.596Z,5.70
2019-04-13T16:20:57.666Z,5.50
2019-04-13T16:23:24.287Z,5.47
2019-04-13T16:25:50.976Z,5.85
2019-04-13T16:28:24.496Z,5.70
2019-04-13T16:31:09.977Z,5.65
2019-04-13T16:34:03.119Z,5.60
2019-04-13T16:36:42.386Z,5.75
2019-04-13T16:39:15.231Z,6.03
2019-04-13T16:41:40.767Z,6.25
2019-04-13T16:44:15.119Z,5.70
2019-04-13T16:46:47.841Z,5.85
2019-04-13T16:49:26.768Z,5.67
2019-04-13T16:52:04.933Z,5.95
2019-04-13T16:54:50.438Z,6.80
2019-04-13T16:57:19.782Z,6.30
2019-04-13T17:00:05.857Z,8.65
2019-04-13T17:03:05.572Z,7.37
2019-04-13T17:05:35.404Z,6.42
2019-04-13T17:08:03.360Z,7.30
2019-04-13T17:10:31.341Z,7.92
2019-04-13T17:12:59.181Z,7.45
2019-04-13T17:15:27.019Z,7.35
2019-04-13T17:17:54.496Z,7.35
2019-04-13T17:20:34.884Z,6.60
2019-04-13T17:23:21.449Z,6.15
2019-04-13T17:25:54.301Z,7.53
2019-04-13T17:28:43.676Z,6.97
2019-04-13T17:31:20.383Z,6.55
2019-04-13T17:33:54.137Z,6.83
2019-04-13T17:36:22.654Z,6.92
2019-04-13T17:38:51.264Z,9.15
2019-04-13T17:41:38.225Z,7.42
2019-04-13T17:44:22.916Z,7.60
2019-04-13T17:47:06.412Z,7.30
2019-04-13T17:49:55.399Z,7.60
2019-04-13T17:52:40.717Z,7.70
2019-04-13T17:55:26.027Z,7.90
2019-04-13T17:58:12.466Z,7.50
2019-04-13T18:01:08.201Z,8.08
2019-04-13T18:03:58.489Z,8.05
2019-04-13T18:06:40.072Z,7.20
2019-04-13T18:09:45.759Z,7.70
2019-04-13T18:12:51.788Z,7.70
2019-04-13T18:15:44.392Z,8.70
2019-04-13T18:18:28.919Z,7.55
2019-04-13T18:20:57.269Z,8.10
2019-04-13T18:23:25.317Z,8.43
2019-04-13T18:25:55.626Z,7.53
2019-04-13T18:28:24.983Z,9.55
2019-04-13T18:30:52.165Z,8.80
2019-04-13T18:33:20.322Z,8.15
2019-04-13T18:35:49.067Z,7.50
2019-04-13T18:38:17.621Z,9.23
2019-04-13T18:40:45.184Z,8.85
2019-04-13T18:43:17.797Z,8.60
2019-04-13T18:45:41.196Z,8.25
2019-04-13T18:48:08.127Z,8.73
2019-04-13T18:50:35.395Z,8.63
2019-04-13T18:53:05.318Z,8.55
2019-04-13T18:55:31.237Z,8.43
2019-04-13T18:57:59.077Z,9.38
2019-04-13T19:00:26.311Z,10.18
2019-04-13T19:02:54.224Z,9.53
2019-04-13T19:05:21.754Z,10.88
2019-04-13T19:07:48.810Z,11.30
2019-04-13T19:10:15.915Z,10.43
2019-04-13T19:12:42.689Z,12.20
2019-04-13T19:15:09.527Z,9.25
2019-04-13T19:17:37.276Z,10.88
2019-04-13T19:20:04.531Z,10.50
2019-04-13T19:22:32.535Z,10.50
2019-04-13T19:24:59.280Z,10.35
2019-04-13T19:27:26.621Z,8.95
2019-04-13T19:29:53.791Z,9.70
2019-04-13T19:32:20.795Z,8.65
2019-04-13T19:34:48.147Z,9.43
2019-04-13T19:37:16.340Z,9.93
2019-04-13T19:39:43.076Z,8.85
2019-04-13T19:42:10.176Z,8.05
2019-04-13T19:44:38.601Z,8.78
2019-04-13T19:47:05.756Z,8.50
2019-04-13T19:49:32.576Z,7.53
2019-04-13T19:52:25.286Z,8.43
2019-04-13T19:54:53.164Z,8.65
2019-04-13T19:57:20.239Z,7.37
2019-04-13T19:59:47.486Z,8.43
2019-04-13T20:02:16.173Z,9.85
2019-04-13T20:04:42.895Z,8.10
2019-04-13T20:07:09.611Z,8.30
2019-04-13T20:09:37.347Z,6.83
2019-04-13T20:12:05.802Z,9.10
2019-04-13T20:14:32.994Z,7.97
2019-04-13T20:16:59.955Z,7.10
2019-04-13T20:19:26.632Z,7.58
2019-04-13T20:21:54.348Z,7.22
2019-04-13T20:24:21.050Z,7.42
2019-04-13T20:26:47.683Z,6.75
2019-04-13T20:29:14.431Z,7.47
2019-04-13T20:31:42.082Z,7.67
2019-04-13T20:34:09.852Z,6.72
2019-04-13T20:36:39.395Z,7.00
2019-04-13T20:39:07.051Z,6.87
2019-04-13T20:41:48.050Z,7.20
2019-04-13T20:44:10.956Z,6.65
2019-04-13T20:46:34.179Z,6.50
2019-04-13T20:49:01.996Z,7.12
2019-04-13T20:51:30.023Z,6.20
2019-04-13T20:53:56.906Z,7.17
2019-04-13T20:56:24.969Z,6.28
2019-04-13T20:58:53.289Z,6.97
2019-04-13T21:01:21.278Z,6.28
2019-04-13T21:03:51.241Z,6.22
2019-04-13T21:06:19.557Z,7.03
2019-04-13T21:08:50.419Z,6.67
2019-04-13T21:11:15.759Z,5.62
2019-04-13T21:13:56.637Z,6.85
2019-04-13T21:16:12.757Z,7.00
2019-04-13T21:18:45.018Z,6.30
2019-04-13T21:21:12.766Z,6.40
2019-04-13T21:23:40.721Z,7.53
2019-04-13T21:26:08.730Z,7.30
2019-04-13T21:28:36.469Z,6.62
2019-04-13T21:31:04.441Z,6.58
2019-04-13T21:33:32.110Z,6.10
2019-04-13T21:35:59.721Z,6.80
2019-04-13T21:38:27.710Z,6.20
2019-04-13T21:40:55.845Z,6.97
2019-04-13T21:43:23.624Z,7.72
2019-04-13T21:45:51.401Z,7.87
2019-04-13T21:48:19.535Z,7.37
2019-04-13T21:51:05.896Z,10.00
2019-04-13T21:53:48.419Z,6.53
2019-04-13T21:56:16.434Z,6.87
2019-04-13T21:58:46.868Z,7.40
2019-04-13T22:01:32.642Z,7.58
2019-04-13T22:04:00.725Z,6.55
2019-04-13T22:06:27.750Z,6.53
2019-04-13T22:08:55.715Z,6.83
2019-04-13T22:11:23.391Z,6.90
2019-04-13T22:13:51.100Z,6.97
2019-04-13T22:16:19.021Z,7.95
2019-04-13T22:18:45.759Z,6.85
2019-04-13T22:21:13.376Z,6.65
2019-04-13T22:23:41.038Z,7.20
2019-04-13T22:26:08.847Z,6.95
2019-04-13T22:28:43.751Z,6.90
2019-04-13T22:31:37.352Z,5.70
2019-04-13T22:34:05.475Z,6.40
2019-04-13T22:36:35.334Z,7.22
2019-04-13T22:39:04.065Z,6.20
2019-04-13T22:41:33.052Z,6.15
2019-04-13T22:44:00.913Z,5.67
2019-04-13T22:46:28.343Z,6.45
2019-04-13T22:49:14.684Z,5.87
2019-04-13T22:52:00.327Z,5.90
2019-04-13T22:54:56.051Z,5.30
2019-04-13T22:57:34.778Z,6.05
2019-04-13T23:00:02.177Z,6.25
2019-04-13T23:02:50.181Z,6.05
2019-04-13T23:05:17.634Z,5.50
2019-04-13T23:07:45.687Z,6.33
2019-04-13T23:10:13.747Z,5.83
2019-04-13T23:12:42.030Z,6.45
2019-04-13T23:15:19.439Z,6.75
2019-04-13T23:17:38.275Z,6.50
2019-04-13T23:20:05.533Z,6.75
2019-04-13T23:22:32.160Z,5.37
2019-04-13T23:25:00.433Z,6.40
2019-04-13T23:27:28.711Z,6.87
2019-04-13T23:29:56.496Z,6.92
2019-04-13T23:32:23.278Z,6.87
2019-04-13T23:34:50.849Z,7.58
2019-04-13T23:37:17.700Z,7.25
2019-04-13T23:39:45.276Z,7.15
2019-04-13T23:42:13.278Z,7.67
2019-04-13T23:44:40.219Z,6.45
2019-04-13T23:47:07.846Z,6.78
2019-04-13T23:49:34.708Z,6.20
2019-04-13T23:52:02.170Z,6.53
2019-04-13T23:54:30.483Z,6.62
2019-04-13T23:57:16.057Z,6.58
2019-04-13T23:59:48.023Z,6.87
